YBCGYBNA

Guest
Details From YBCG - Gold Coast International
To YBNA - Ballina
Flight Number -
Tags Routegen Generated
Created
Modified
Stats Distance 52 nm / 97 km
Max Altitude 100 ft / 30 m
Waypoints 5
Social Downloads 0
Likes 0
Share VATSIM

Download

Looking for another format? Having issues loading an existing format? Contact us
Advertisement - Login to hide

Notes

Departing runway 0 YBCG. Arriving runway 7 YBNA.

Route

YBCG -28.10_+153.51 -28.45_+153.58 -28.81_+153.65 YBNA

ID Type Via Altitude Latitude Longitude Leg Dist Tot Dist Heading (true) Name
O YBCG APT - 0 ft / 0 m -28.16934˚ 153.50598˚ - 0 nm - Gold Coast International
-28.10_+153.51 LATLON - 100 ft / 30 m -28.09715˚ 153.51169˚ 4 nm 4 nm 4° / 4° -
-28.45_+153.58 LATLON - 100 ft / 30 m -28.45368˚ 153.58063˚ 21 nm 26 nm 170° / 170° -
-28.81_+153.65 LATLON - 100 ft / 30 m -28.81020˚ 153.64956˚ 21 nm 47 nm 170° / 170° -
O YBNA APT - 0 ft / 0 m -28.83090˚ 153.57041˚ 4 nm 52 nm 253° / 253° -

Altitude Profile

Advertisement - Login to hide

YBCG

Details ICAO YBCG (OOL)
Name Gold Coast International
Region Australia
Timezone Australia/Brisbane (UTC+10.0)
Stats Elevation 20 ft / 6 m (AMSL)
Location -28.166035° 153.506155°
Runways 2
Magnetic Variation 11.330° E

METAR

YBCG 131800Z AUTO 00000KT 9999 // NCD 18/17 Q1013 RF00.0/000.0

Decode

TAF

TAF YBCG 131704Z 1318/1418 23005KT 9999 FEW030 FM132300 03012KT 9999 FEW030 FM140800 02007KT 9999 FEW025

Decode

Departure Runways

ID Width Length Bearing (true) Bearing (mag) Surface Threshold Offset Overrun Length
14 148 ft / 45 m 7,687 ft / 2,343 m 150.04° 138.71° Asphalt 0 ft / 0 m 394 ft / 120 m
17 59 ft / 18 m 1,911 ft / 582 m 184.00° 172.67° Asphalt 0 ft / 0 m 0 ft / 0 m
32 148 ft / 45 m 7,687 ft / 2,343 m 330.04° 318.71° Asphalt 0 ft / 0 m 394 ft / 120 m
35 59 ft / 18 m 1,911 ft / 582 m 4.00° 352.67° Asphalt 0 ft / 0 m 0 ft / 0 m

YBNA

Details ICAO YBNA (BNK)
Name Ballina/Byron Gateway
Region Australia
Timezone Australia/Sydney (UTC+11.0)
Stats Elevation 6 ft / 2 m (AMSL)
Location -28.833306° 153.561207°
Runways 1
Magnetic Variation 11.556° E

METAR

YBNA 131804Z AUTO 00000KT 9999 // NCD 15/15 Q1013

Decode

TAF

Not found

Destination Runways

ID Width Length Bearing (true) Bearing (mag) Surface Threshold Offset Overrun Length
06 98 ft / 30 m 6,241 ft / 1,902 m 73.50° 61.94° Asphalt 0 ft / 0 m 0 ft / 0 m
24 98 ft / 30 m 6,241 ft / 1,902 m 253.50° 241.94° Asphalt 0 ft / 0 m 0 ft / 0 m

Popular Alternatives